createdAt,value
2018-07-02T00:00:09.156Z,101206.91
2018-07-02T00:02:37.447Z,101203.70
2018-07-02T00:05:06.008Z,101202.75
2018-07-02T00:07:34.217Z,101202.72
2018-07-02T00:10:02.504Z,101199.69
2018-07-02T00:12:30.736Z,101194.91
2018-07-02T00:14:58.935Z,101202.05
2018-07-02T00:17:27.252Z,101196.34
2018-07-02T00:19:55.459Z,101194.12
2018-07-02T00:22:23.742Z,101194.50
2018-07-02T00:24:51.952Z,101197.04
2018-07-02T00:27:20.132Z,101194.92
2018-07-02T00:29:48.317Z,101192.17
2018-07-02T00:32:16.551Z,101191.26
2018-07-02T00:34:44.734Z,101193.13
2018-07-02T00:37:12.903Z,101197.66
2018-07-02T00:39:41.118Z,101199.53
2018-07-02T00:42:09.389Z,101201.49
2018-07-02T00:44:37.589Z,101207.49
2018-07-02T00:47:05.747Z,101205.03
2018-07-02T00:49:33.871Z,101204.91
2018-07-02T00:52:02.078Z,101211.03
2018-07-02T00:54:30.279Z,101214.74
2018-07-02T00:56:59.110Z,101214.68
2018-07-02T00:59:27.347Z,101210.50
2018-07-02T01:01:56.626Z,101208.76
2018-07-02T01:04:24.775Z,101206.89
2018-07-02T01:06:53.411Z,101205.53
2018-07-02T01:09:21.567Z,101202.74
2018-07-02T01:11:50.011Z,101200.55
2018-07-02T01:14:18.684Z,101206.16
2018-07-02T01:16:47.232Z,101198.64
2018-07-02T01:19:15.444Z,101207.63
2018-07-02T01:21:43.895Z,101208.47
2018-07-02T01:24:12.204Z,101218.83
2018-07-02T01:26:40.438Z,101214.33
2018-07-02T01:29:09.000Z,101225.07
2018-07-02T01:31:37.197Z,101227.32
2018-07-02T01:34:05.698Z,101224.96
2018-07-02T01:36:34.042Z,101219.94
2018-07-02T01:39:03.167Z,101216.78
2018-07-02T01:41:31.704Z,101214.91
2018-07-02T01:43:59.872Z,101216.81
2018-07-02T01:46:27.989Z,101220.03
2018-07-02T01:48:56.083Z,101219.70
2018-07-02T01:51:24.301Z,101215.09
2018-07-02T01:53:52.546Z,101219.91
2018-07-02T01:56:21.229Z,101221.38
2018-07-02T01:58:49.420Z,101215.09
2018-07-02T02:01:17.633Z,101218.33
2018-07-02T02:03:45.900Z,101220.98
2018-07-02T02:06:14.234Z,101225.59
2018-07-02T02:08:42.674Z,101219.94
2018-07-02T02:11:11.050Z,101216.03
2018-07-02T02:13:39.711Z,101218.55
2018-07-02T02:16:07.853Z,101224.31
2018-07-02T02:18:36.459Z,101210.11
2018-07-02T02:21:05.001Z,101218.86
2018-07-02T02:23:33.255Z,101212.77
2018-07-02T02:26:01.571Z,101210.40
2018-07-02T02:28:30.294Z,101205.98
2018-07-02T02:30:58.486Z,101208.30
2018-07-02T02:33:26.663Z,101209.38
2018-07-02T02:35:54.843Z,101210.23
2018-07-02T02:38:23.233Z,101208.93
2018-07-02T02:40:51.565Z,101209.82
2018-07-02T02:43:19.747Z,101207.49
2018-07-02T02:45:48.110Z,101208.38
2018-07-02T02:48:16.388Z,101211.22
2018-07-02T02:50:44.952Z,101213.30
2018-07-02T02:53:13.216Z,101217.66
2018-07-02T02:55:41.444Z,101218.92
2018-07-02T02:58:09.865Z,101217.80
2018-07-02T03:00:38.137Z,101220.74
2018-07-02T03:03:06.356Z,101224.66
2018-07-02T03:05:34.756Z,101231.11
2018-07-02T03:08:03.852Z,101232.41
2018-07-02T03:10:32.094Z,101233.48
2018-07-02T03:13:00.297Z,101238.58
2018-07-02T03:15:28.513Z,101229.42
2018-07-02T03:17:56.681Z,101239.25
2018-07-02T03:20:24.986Z,101243.82
2018-07-02T03:22:53.118Z,101248.48
2018-07-02T03:25:21.363Z,101250.34
2018-07-02T03:27:49.644Z,101248.41
2018-07-02T03:30:18.382Z,101251.08
2018-07-02T03:32:46.930Z,101244.66
2018-07-02T03:35:15.189Z,101246.44
2018-07-02T03:37:43.610Z,101248.34
2018-07-02T03:40:11.749Z,101263.80
2018-07-02T03:42:39.938Z,101267.50
2018-07-02T03:45:08.173Z,101271.69
2018-07-02T03:47:36.325Z,101273.99
2018-07-02T03:50:04.791Z,101274.20
2018-07-02T03:52:33.188Z,101267.73
2018-07-02T03:55:01.608Z,101262.45
2018-07-02T03:57:30.211Z,101262.59
2018-07-02T03:59:58.483Z,101262.02
2018-07-02T04:02:26.789Z,101260.08
2018-07-02T04:04:55.010Z,101263.60
2018-07-02T04:07:23.296Z,101267.16
2018-07-02T04:09:51.474Z,101270.72
2018-07-02T04:12:19.751Z,101275.92
2018-07-02T04:14:47.996Z,101271.63
2018-07-02T04:17:16.494Z,101267.84
2018-07-02T04:19:44.683Z,101266.81
2018-07-02T04:22:13.010Z,101264.47
2018-07-02T04:24:41.496Z,101255.19
2018-07-02T04:27:09.765Z,101266.82
2018-07-02T04:29:38.070Z,101267.31
2018-07-02T04:32:06.662Z,101266.41
2018-07-02T04:34:34.933Z,101267.25
2018-07-02T04:37:03.187Z,101260.75
2018-07-02T04:39:31.528Z,101264.29
2018-07-02T04:41:59.761Z,101265.38
2018-07-02T04:44:27.959Z,101267.81
2018-07-02T04:46:56.311Z,101256.24
2018-07-02T04:49:24.494Z,101258.22
2018-07-02T04:51:53.046Z,101261.91
2018-07-02T04:54:22.466Z,101266.94
2018-07-02T04:56:50.261Z,101260.13
2018-07-02T04:59:18.532Z,101260.17
2018-07-02T05:01:46.731Z,101259.84
2018-07-02T05:04:15.042Z,101254.74
2018-07-02T05:06:43.259Z,101256.66
2018-07-02T05:09:11.522Z,101258.92
2018-07-02T05:11:39.633Z,101256.27
2018-07-02T05:14:07.798Z,101253.00
2018-07-02T05:16:36.877Z,101258.22
2018-07-02T05:19:05.036Z,101263.02
2018-07-02T05:21:33.399Z,101265.59
2018-07-02T05:24:01.566Z,101268.62
2018-07-02T05:26:29.787Z,101258.53
2018-07-02T05:28:58.404Z,101263.13
2018-07-02T05:31:26.812Z,101253.06
2018-07-02T05:33:55.033Z,101258.33
2018-07-02T05:36:23.245Z,101259.95
2018-07-02T05:38:51.506Z,101264.69
2018-07-02T05:41:19.892Z,101267.37
2018-07-02T05:43:48.171Z,101265.84
2018-07-02T05:46:16.383Z,101265.00
2018-07-02T05:48:44.689Z,101271.06
2018-07-02T05:51:12.857Z,101261.14
2018-07-02T05:53:40.975Z,101265.71
2018-07-02T05:56:09.205Z,101268.36
2018-07-02T05:58:37.387Z,101278.92
2018-07-02T06:01:05.626Z,101279.10
2018-07-02T06:03:33.913Z,101279.17
2018-07-02T06:06:02.164Z,101287.56
2018-07-02T06:08:30.338Z,101292.91
2018-07-02T06:10:58.462Z,101296.55
2018-07-02T06:13:27.518Z,101295.11
2018-07-02T06:15:56.275Z,101312.39
2018-07-02T06:18:24.715Z,101308.33
2018-07-02T06:20:53.580Z,101308.70
2018-07-02T06:23:21.972Z,101306.59
2018-07-02T06:25:50.355Z,101303.75
2018-07-02T06:28:18.618Z,101305.03
2018-07-02T06:30:46.725Z,101308.94
2018-07-02T06:33:15.614Z,101304.14
2018-07-02T06:35:43.821Z,101303.41
2018-07-02T06:38:12.687Z,101305.86
2018-07-02T06:40:41.098Z,101316.87
2018-07-02T06:43:09.382Z,101319.31
2018-07-02T06:45:37.509Z,101316.34
2018-07-02T06:48:05.864Z,101323.58
2018-07-02T06:50:34.461Z,101317.98
2018-07-02T06:53:02.717Z,101322.55
2018-07-02T06:55:30.985Z,101314.58
2018-07-02T06:57:59.201Z,101314.95
2018-07-02T07:00:28.107Z,101318.77
2018-07-02T07:02:56.722Z,101325.40
2018-07-02T07:05:25.005Z,101320.42
2018-07-02T07:07:53.426Z,101315.86
2018-07-02T07:10:21.684Z,101318.37
2018-07-02T07:12:50.373Z,101321.70
2018-07-02T07:15:18.847Z,101323.34
2018-07-02T07:17:47.155Z,101320.45
2018-07-02T07:20:15.396Z,101319.22
2018-07-02T07:22:43.610Z,101319.21
2018-07-02T07:25:12.058Z,101319.80
2018-07-02T07:27:40.360Z,101317.52
2018-07-02T07:30:08.581Z,101317.05
2018-07-02T07:32:36.823Z,101315.27
2018-07-02T07:35:05.224Z,101317.00
2018-07-02T07:37:33.566Z,101314.23
2018-07-02T07:40:01.863Z,101310.70
2018-07-02T07:42:34.226Z,101314.92
2018-07-02T07:45:03.140Z,101312.16
2018-07-02T07:47:31.423Z,101315.64
2018-07-02T07:49:59.835Z,101313.12
2018-07-02T07:52:28.424Z,101310.28
2018-07-02T07:54:56.938Z,101315.89
2018-07-02T07:57:25.177Z,101315.36
2018-07-02T07:59:53.512Z,101315.74
2018-07-02T08:02:21.891Z,101316.41
2018-07-02T08:04:50.306Z,101314.11
2018-07-02T08:07:20.385Z,101321.28
2018-07-02T08:09:48.558Z,101324.22
2018-07-02T08:12:16.789Z,101320.44
2018-07-02T08:14:45.169Z,101328.77
2018-07-02T08:17:13.418Z,101325.78
2018-07-02T08:19:41.592Z,101329.91
2018-07-02T08:22:10.126Z,101325.05
2018-07-02T08:24:38.239Z,101329.56
2018-07-02T08:27:06.627Z,101336.50
2018-07-02T08:29:34.769Z,101338.54
2018-07-02T08:32:02.922Z,101337.52
2018-07-02T08:34:31.197Z,101339.94
2018-07-02T08:36:59.526Z,101339.09
2018-07-02T08:39:37.100Z,101344.43
2018-07-02T08:42:05.454Z,101341.92
2018-07-02T08:44:33.568Z,101343.02
2018-07-02T08:47:02.115Z,101340.69
2018-07-02T08:49:30.222Z,101336.59
2018-07-02T08:51:58.394Z,101342.86
2018-07-02T08:54:26.813Z,101336.63
2018-07-02T08:56:54.950Z,101335.27
2018-07-02T08:59:23.118Z,101332.28
2018-07-02T09:01:51.363Z,101342.85
2018-07-02T09:04:19.642Z,101336.44
2018-07-02T09:06:48.097Z,101329.00
2018-07-02T09:09:16.342Z,101337.02
2018-07-02T09:11:44.667Z,101337.96
2018-07-02T09:14:12.986Z,101348.43
2018-07-02T09:16:41.186Z,101339.00
2018-07-02T09:19:09.406Z,101335.12
2018-07-02T09:21:37.879Z,101346.54
2018-07-02T09:24:06.384Z,101336.78
2018-07-02T09:26:35.176Z,101341.70
2018-07-02T09:29:04.331Z,101340.87
2018-07-02T09:31:32.688Z,101337.51
2018-07-02T09:34:01.394Z,101338.81
2018-07-02T09:36:30.058Z,101335.94
2018-07-02T09:38:58.625Z,101334.98
2018-07-02T09:41:26.900Z,101338.52
2018-07-02T09:43:55.703Z,101340.12
2018-07-02T09:46:23.882Z,101341.14
2018-07-02T09:48:52.181Z,101344.17
2018-07-02T09:51:20.366Z,101339.28
2018-07-02T09:53:48.608Z,101329.53
2018-07-02T09:56:16.677Z,101326.29
2018-07-02T09:58:52.034Z,101330.48
2018-07-02T10:01:20.361Z,101329.23
2018-07-02T10:03:48.561Z,101327.91
2018-07-02T10:06:16.884Z,101328.39
2018-07-02T10:08:45.913Z,101328.11
2018-07-02T10:11:14.182Z,101329.70
2018-07-02T10:13:42.323Z,101342.19
2018-07-02T10:16:10.473Z,101334.37
2018-07-02T10:18:38.588Z,101330.77
2018-07-02T10:21:07.026Z,101326.58
2018-07-02T10:23:37.336Z,101339.02
2018-07-02T10:26:03.616Z,101328.52
2018-07-02T10:28:31.987Z,101332.73
2018-07-02T10:31:00.320Z,101336.29
2018-07-02T10:33:28.450Z,101333.45
2018-07-02T10:35:56.762Z,101341.47
2018-07-02T10:38:25.799Z,101331.52
2018-07-02T10:40:54.035Z,101334.67
2018-07-02T10:43:22.516Z,101338.16
2018-07-02T10:45:51.621Z,101329.25
2018-07-02T10:48:19.819Z,101323.02
2018-07-02T10:50:48.393Z,101326.64
2018-07-02T10:53:16.651Z,101325.18
2018-07-02T10:55:45.206Z,101321.31
2018-07-02T10:58:14.354Z,101316.39
2018-07-02T11:00:42.624Z,101319.64
2018-07-02T11:03:11.285Z,101320.33
2018-07-02T11:05:39.635Z,101330.55
2018-07-02T11:08:07.923Z,101325.22
2018-07-02T11:10:36.215Z,101331.54
2018-07-02T11:13:09.320Z,101315.56
2018-07-02T11:15:38.155Z,101326.14
2018-07-02T11:18:06.702Z,101335.09
2018-07-02T11:20:35.163Z,101339.20
2018-07-02T11:23:03.401Z,101336.95
2018-07-02T11:25:31.604Z,101335.36
2018-07-02T11:27:59.737Z,101327.58
2018-07-02T11:30:27.925Z,101330.27
2018-07-02T11:32:56.306Z,101331.23
2018-07-02T11:35:24.451Z,101337.16
2018-07-02T11:37:52.701Z,101318.81
2018-07-02T11:40:20.945Z,101330.11
2018-07-02T11:42:49.150Z,101329.22
2018-07-02T11:45:17.339Z,101328.31
2018-07-02T11:47:45.700Z,101330.07
2018-07-02T11:50:13.970Z,101331.41
2018-07-02T11:52:42.085Z,101331.77
2018-07-02T11:55:10.255Z,101339.91
2018-07-02T11:57:38.537Z,101330.69
2018-07-02T12:00:08.260Z,101316.06
2018-07-02T12:02:36.625Z,101321.05
2018-07-02T12:05:05.268Z,101322.53
2018-07-02T12:07:33.497Z,101326.44
2018-07-02T12:10:02.415Z,101329.61
2018-07-02T12:12:31.140Z,101327.59
2018-07-02T12:14:59.410Z,101328.92
2018-07-02T12:17:27.758Z,101324.39
2018-07-02T12:19:55.991Z,101332.15
2018-07-02T12:22:24.510Z,101331.25
2018-07-02T12:24:53.103Z,101328.14
2018-07-02T12:27:21.394Z,101333.77
2018-07-02T12:29:49.815Z,101327.14
2018-07-02T12:32:18.113Z,101326.09
2018-07-02T12:34:46.354Z,101323.61
2018-07-02T12:37:14.454Z,101321.58
2018-07-02T12:39:42.975Z,101317.03
2018-07-02T12:42:11.192Z,101309.85
2018-07-02T12:44:39.452Z,101309.33
2018-07-02T12:47:08.686Z,101306.66
2018-07-02T12:49:36.918Z,101315.70
2018-07-02T12:52:05.178Z,101307.28
2018-07-02T12:54:33.386Z,101317.66
2018-07-02T12:57:03.045Z,101303.25
2018-07-02T12:59:31.573Z,101307.33
2018-07-02T13:01:59.683Z,101321.78
2018-07-02T13:04:28.300Z,101315.52
2018-07-02T13:06:56.722Z,101316.09
2018-07-02T13:09:25.009Z,101310.80
2018-07-02T13:11:53.267Z,101298.78
2018-07-02T13:14:21.650Z,101294.35
2018-07-02T13:16:50.394Z,101299.42
2018-07-02T13:19:19.202Z,101297.69
2018-07-02T13:21:47.406Z,101294.09
2018-07-02T13:24:15.748Z,101292.86
2018-07-02T13:26:44.050Z,101297.97
2018-07-02T13:29:12.519Z,101290.22
2018-07-02T13:31:42.723Z,101308.25
2018-07-02T13:34:11.178Z,101292.66
2018-07-02T13:36:40.199Z,101295.61
2018-07-02T13:39:10.184Z,101288.69
2018-07-02T13:41:39.140Z,101281.64
2018-07-02T13:44:07.805Z,101284.48
2018-07-02T13:46:36.325Z,101284.31
2018-07-02T13:49:05.603Z,101274.91
2018-07-02T13:51:35.257Z,101273.16
2018-07-02T13:54:03.563Z,101282.31
2018-07-02T13:56:33.645Z,101272.00
2018-07-02T13:59:03.025Z,101274.92
2018-07-02T14:01:32.154Z,101275.28
2018-07-02T14:04:00.436Z,101274.27
2018-07-02T14:06:28.928Z,101278.19
2018-07-02T14:08:57.542Z,101269.29
2018-07-02T14:11:25.977Z,101269.03
2018-07-02T14:13:54.602Z,101260.95
2018-07-02T14:16:23.034Z,101265.08
2018-07-02T14:18:52.501Z,101267.54
2018-07-02T14:21:20.967Z,101266.58
2018-07-02T14:23:49.981Z,101265.81
2018-07-02T14:26:18.999Z,101265.36
2018-07-02T14:28:47.797Z,101262.59
2018-07-02T14:31:16.375Z,101262.38
2018-07-02T14:33:44.855Z,101256.95
2018-07-02T14:36:13.609Z,101256.83
2018-07-02T14:38:41.960Z,101256.59
2018-07-02T14:41:10.645Z,101247.05
2018-07-02T14:43:39.205Z,101254.86
2018-07-02T14:46:07.509Z,101263.14
2018-07-02T14:48:36.501Z,101257.31
2018-07-02T14:51:04.897Z,101250.31
2018-07-02T14:53:34.065Z,101258.23
2018-07-02T14:56:02.534Z,101253.11
2018-07-02T14:58:31.542Z,101251.06
2018-07-02T15:01:00.496Z,101251.53
2018-07-02T15:03:29.341Z,101254.21
2018-07-02T15:05:58.394Z,101246.61
2018-07-02T15:08:26.704Z,101250.25
2018-07-02T15:10:54.924Z,101240.28
2018-07-02T15:13:23.153Z,101242.83
2018-07-02T15:15:51.667Z,101248.50
2018-07-02T15:18:20.017Z,101241.19
2018-07-02T15:20:48.304Z,101246.00
2018-07-02T15:23:16.593Z,101240.72
2018-07-02T15:25:44.886Z,101244.76
2018-07-02T15:28:13.313Z,101242.65
2018-07-02T15:30:42.320Z,101239.81
2018-07-02T15:33:10.600Z,101239.81
2018-07-02T15:35:39.106Z,101242.09
2018-07-02T15:38:07.414Z,101247.70
2018-07-02T15:40:35.733Z,101239.89
2018-07-02T15:43:04.273Z,101242.89
2018-07-02T15:45:32.906Z,101243.21
2018-07-02T15:48:01.663Z,101247.72
2018-07-02T15:50:30.006Z,101242.31
2018-07-02T15:52:58.459Z,101241.20
2018-07-02T15:55:27.040Z,101232.45
2018-07-02T15:57:55.350Z,101239.25
2018-07-02T16:00:23.790Z,101230.04
2018-07-02T16:02:52.059Z,101230.27
2018-07-02T16:05:20.275Z,101224.86
2018-07-02T16:07:48.551Z,101237.11
2018-07-02T16:10:16.722Z,101231.40
2018-07-02T16:12:45.087Z,101241.48
2018-07-02T16:15:15.731Z,101242.55
2018-07-02T16:17:45.946Z,101236.02
2018-07-02T16:20:14.330Z,101232.44
2018-07-02T16:22:44.484Z,101232.16
2018-07-02T16:25:13.854Z,101240.42
2018-07-02T16:27:42.389Z,101245.17
2018-07-02T16:30:10.890Z,101239.57
2018-07-02T16:32:40.956Z,101235.44
2018-07-02T16:35:09.183Z,101232.16
2018-07-02T16:37:37.805Z,101246.84
2018-07-02T16:40:06.549Z,101239.08
2018-07-02T16:42:35.292Z,101247.62
2018-07-02T16:45:03.836Z,101235.77
2018-07-02T16:47:31.991Z,101232.02
2018-07-02T16:50:00.459Z,101242.89
2018-07-02T16:52:29.016Z,101244.68
2018-07-02T16:54:57.632Z,101239.73
2018-07-02T16:57:26.245Z,101254.02
2018-07-02T16:59:55.706Z,101254.72
2018-07-02T17:02:24.087Z,101262.25
2018-07-02T17:04:53.824Z,101261.67
2018-07-02T17:07:22.243Z,101263.41
2018-07-02T17:09:51.762Z,101269.02
2018-07-02T17:12:20.270Z,101258.77
2018-07-02T17:14:49.442Z,101262.98
2018-07-02T17:17:18.559Z,101268.27
2018-07-02T17:19:48.141Z,101271.30
2018-07-02T17:22:16.525Z,101270.83
2018-07-02T17:24:44.818Z,101264.42
2018-07-02T17:27:13.172Z,101266.63
2018-07-02T17:29:41.524Z,101274.20
2018-07-02T17:32:10.779Z,101271.37
2018-07-02T17:34:39.120Z,101273.08
2018-07-02T17:37:07.583Z,101272.89
2018-07-02T17:39:40.745Z,101264.09
2018-07-02T17:42:09.315Z,101264.97
2018-07-02T17:44:37.662Z,101259.12
2018-07-02T17:47:06.624Z,101263.87
2018-07-02T17:49:34.866Z,101270.53
2018-07-02T17:52:04.157Z,101263.78
2018-07-02T17:54:32.503Z,101262.59
2018-07-02T17:57:01.038Z,101260.14
2018-07-02T17:59:30.417Z,101269.21
2018-07-02T18:01:59.652Z,101276.40
2018-07-02T18:04:31.797Z,101271.00
2018-07-02T18:07:00.812Z,101267.02
2018-07-02T18:09:30.500Z,101268.65
2018-07-02T18:12:00.273Z,101269.16
2018-07-02T18:14:30.192Z,101274.23
2018-07-02T18:17:06.200Z,101282.84
2018-07-02T18:19:40.123Z,101275.40
2018-07-02T18:22:10.429Z,101274.39
2018-07-02T18:24:40.194Z,101272.66
2018-07-02T18:27:13.203Z,101272.24
2018-07-02T18:29:45.876Z,101283.63
2018-07-02T18:32:14.931Z,101278.43
2018-07-02T18:34:43.436Z,101277.33
2018-07-02T18:37:11.702Z,101281.70
2018-07-02T18:39:40.008Z,101284.25
2018-07-02T18:42:08.569Z,101283.16
2018-07-02T18:44:37.491Z,101284.95
2018-07-02T18:47:05.831Z,101293.91
2018-07-02T18:49:34.290Z,101292.64
2018-07-02T18:52:03.432Z,101290.97
2018-07-02T18:54:31.933Z,101294.93
2018-07-02T18:57:00.319Z,101295.03
2018-07-02T18:59:30.167Z,101302.96
2018-07-02T19:02:02.827Z,101298.78
2018-07-02T19:04:31.182Z,101296.64
2018-07-02T19:07:00.604Z,101299.98
2018-07-02T19:09:29.005Z,101298.01
2018-07-02T19:11:58.659Z,101306.89
2018-07-02T19:14:27.883Z,101306.41
2018-07-02T19:16:57.022Z,101301.47
2018-07-02T19:19:25.477Z,101302.59
2018-07-02T19:21:54.457Z,101309.80
2018-07-02T19:24:23.895Z,101312.47
2018-07-02T19:26:52.329Z,101311.06
2018-07-02T19:29:22.103Z,101311.03
2018-07-02T19:31:51.247Z,101313.22
2018-07-02T19:34:19.796Z,101319.13
2018-07-02T19:36:52.952Z,101325.64
2018-07-02T19:39:22.105Z,101322.08
2018-07-02T19:41:51.125Z,101324.70
2018-07-02T19:44:19.610Z,101320.42
2018-07-02T19:46:48.094Z,101338.73
2018-07-02T19:49:16.327Z,101338.31
2018-07-02T19:51:44.623Z,101337.72
2018-07-02T19:54:12.997Z,101347.04
2018-07-02T19:56:41.448Z,101347.95
2018-07-02T19:59:10.001Z,101345.89
2018-07-02T20:01:43.192Z,101353.16
2018-07-02T20:04:11.674Z,101357.75
2018-07-02T20:06:40.824Z,101363.56
2018-07-02T20:09:09.207Z,101358.66
2018-07-02T20:11:37.712Z,101370.82
2018-07-02T20:14:06.169Z,101372.16
2018-07-02T20:16:34.438Z,101369.66
2018-07-02T20:19:02.712Z,101377.64
2018-07-02T20:21:31.008Z,101378.70
2018-07-02T20:24:00.111Z,101391.47
2018-07-02T20:26:28.978Z,101385.72
2018-07-02T20:28:57.291Z,101386.56
2018-07-02T20:31:25.688Z,101391.33
2018-07-02T20:33:53.882Z,101389.55
2018-07-02T20:36:22.254Z,101397.61
2018-07-02T20:38:50.675Z,101399.91
2018-07-02T20:41:20.419Z,101400.77
2018-07-02T20:43:48.688Z,101412.84
2018-07-02T20:46:17.002Z,101413.25
2018-07-02T20:48:45.301Z,101407.94
2018-07-02T20:51:14.714Z,101418.51
2018-07-02T20:53:43.244Z,101418.46
2018-07-02T20:56:12.409Z,101440.69
2018-07-02T20:58:40.898Z,101420.09
2018-07-02T21:01:10.226Z,101416.70
2018-07-02T21:03:39.215Z,101436.34
2018-07-02T21:06:07.506Z,101441.88
2018-07-02T21:08:35.815Z,101440.73
2018-07-02T21:11:04.038Z,101444.99
2018-07-02T21:13:32.296Z,101440.95
2018-07-02T21:16:01.684Z,101446.47
2018-07-02T21:18:30.049Z,101449.48
2018-07-02T21:20:58.425Z,101446.97
2018-07-02T21:23:26.829Z,101452.19
2018-07-02T21:25:57.162Z,101452.61
2018-07-02T21:28:26.665Z,101456.37
2018-07-02T21:30:54.901Z,101458.47
2018-07-02T21:33:23.288Z,101460.11
2018-07-02T21:35:51.720Z,101453.93
2018-07-02T21:38:20.133Z,101453.30
2018-07-02T21:40:48.288Z,101454.33
2018-07-02T21:43:16.636Z,101458.72
2018-07-02T21:45:45.105Z,101465.06
2018-07-02T21:48:14.545Z,101466.86
2018-07-02T21:50:43.022Z,101461.00
2018-07-02T21:53:11.540Z,101463.28
2018-07-02T21:55:40.637Z,101467.87
2018-07-02T21:58:13.378Z,101462.96
2018-07-02T22:00:44.739Z,101471.04
2018-07-02T22:03:13.289Z,101465.70
2018-07-02T22:05:41.801Z,101470.64
2018-07-02T22:08:11.090Z,101469.42
2018-07-02T22:10:39.696Z,101473.01
2018-07-02T22:13:08.267Z,101468.45
2018-07-02T22:15:36.722Z,101472.11
2018-07-02T22:18:05.282Z,101472.30
2018-07-02T22:20:33.680Z,101471.16
2018-07-02T22:23:02.058Z,101469.90
2018-07-02T22:25:30.455Z,101475.72
2018-07-02T22:27:58.890Z,101475.66
2018-07-02T22:30:28.005Z,101472.83
2018-07-02T22:32:56.244Z,101469.86
2018-07-02T22:35:24.532Z,101474.61
2018-07-02T22:37:52.962Z,101474.77
2018-07-02T22:40:21.814Z,101470.28
2018-07-02T22:42:50.258Z,101471.64
2018-07-02T22:45:19.114Z,101475.19
2018-07-02T22:47:47.563Z,101474.67
2018-07-02T22:50:15.866Z,101483.40
2018-07-02T22:52:44.280Z,101474.95
2018-07-02T22:55:12.605Z,101475.62
2018-07-02T22:57:41.135Z,101479.21
2018-07-02T23:00:09.674Z,101470.42
2018-07-02T23:02:42.474Z,101480.22
2018-07-02T23:05:10.709Z,101480.64
2018-07-02T23:07:38.984Z,101478.25
2018-07-02T23:10:07.769Z,101487.03
2018-07-02T23:12:36.035Z,101486.69
2018-07-02T23:15:04.627Z,101490.13
2018-07-02T23:17:32.901Z,101486.19
2018-07-02T23:20:01.185Z,101484.59
2018-07-02T23:23:05.138Z,101487.42
2018-07-02T23:25:33.433Z,101491.75
2018-07-02T23:28:02.169Z,101487.63
2018-07-02T23:30:31.754Z,101488.09
2018-07-02T23:33:00.372Z,101483.45
2018-07-02T23:35:29.479Z,101484.80
2018-07-02T23:37:57.801Z,101488.03
2018-07-02T23:40:26.543Z,101490.45
2018-07-02T23:42:55.022Z,101483.77
2018-07-02T23:45:25.650Z,101480.97
2018-07-02T23:47:54.088Z,101485.36
2018-07-02T23:50:22.987Z,101480.39
2018-07-02T23:52:51.394Z,101475.14
2018-07-02T23:55:19.643Z,101485.88
2018-07-02T23:57:48.050Z,101490.63
